This is the latest recevied weather packets stored in our database for station/object EA3ABN-1. If no packets are shown the sender has not sent any weather packets the latest 10 day(s).
| Time | Temp. | Humidity | Pressure | Rain* | Wind** | Luminosity | Snow |
|---|---|---|---|---|---|---|---|
| 1777668589 | 24.44° C | 32% | 1021.6 hPa | - | - | - | - |
| 1777668304 | 24.44° C | 33% | 1021.5 hPa | - | - | - | - |
| 1777667704 | 24.44° C | 32% | 1021.4 hPa | - | - | - | - |
| 1777667088 | 24.44° C | 32% | 1021.5 hPa | - | - | - | - |
| 1777665889 | 25° C | 32% | 1021.3 hPa | - | - | - | - |
| 1777665589 | 25° C | 32% | 1021.3 hPa | - | - | - | - |
| 1777662604 | 26.11° C | 32% | 1020.4 hPa | - | - | - | - |
| 1777661088 | 26.67° C | 32% | 1020 hPa | - | - | - | - |
| 1777660788 | 26.67° C | 32% | 1019.9 hPa | - | - | - | - |
| 1777660188 | 27.22° C | 32% | 1019.8 hPa | - | - | - | - |
| 1777658689 | 27.78° C | 32% | 1019.2 hPa | - | - | - | - |
| 1777654788 | 28.33° C | 32% | 1018.9 hPa | - | - | - | - |
| 1777653888 | 28.33° C | 32% | 1018.8 hPa | - | - | - | - |
| 1777645788 | 30° C | 33% | 1018.4 hPa | - | - | - | - |
| 1777645504 | 30° C | 33% | 1018.3 hPa | - | - | - | - |
| 1777644288 | 30° C | 32% | 1018.4 hPa | - | - | - | - |
| 1777641604 | 30° C | 32% | 1018.3 hPa | - | - | - | - |
| 1777640388 | 30° C | 32% | 1018.4 hPa | - | - | - | - |
| 1777640088 | 30° C | 32% | 1018.5 hPa | - | - | - | - |
| 1777638305 | 30° C | 32% | 1018.3 hPa | - | - | - | - |
| 1777638004 | 30° C | 32% | 1018.3 hPa | - | - | - | - |
| 1777637688 | 30° C | 32% | 1018.4 hPa | - | - | - | - |
| 1777637088 | 29.44° C | 32% | 1018.3 hPa | - | - | - | - |
| 1777636488 | 29.44° C | 32% | 1018.5 hPa | - | - | - | - |
| 1777636188 | 30° C | 32% | 1018.5 hPa | - | - | - | - |
* Rain since midnight (hover to see other rain measurements)
** Current wind speed in m/s (hover to see current wind gust speed)